createdAt,value
2023-09-30T00:02:00.100Z,13.90
2023-09-30T00:04:28.974Z,13.90
2023-09-30T00:06:56.051Z,13.90
2023-09-30T00:09:23.180Z,13.90
2023-09-30T00:11:50.201Z,13.70
2023-09-30T00:14:18.429Z,13.70
2023-09-30T00:16:45.817Z,13.70
2023-09-30T00:19:12.886Z,13.70
2023-09-30T00:21:39.900Z,13.70
2023-09-30T00:24:07.224Z,13.70
2023-09-30T00:26:34.333Z,13.70
2023-09-30T00:29:01.292Z,13.60
2023-09-30T00:31:28.266Z,13.50
2023-09-30T00:33:56.222Z,13.50
2023-09-30T00:36:23.458Z,13.50
2023-09-30T00:38:50.455Z,13.50
2023-09-30T00:41:17.887Z,13.40
2023-09-30T00:43:47.815Z,13.40
2023-09-30T00:46:29.901Z,13.40
2023-09-30T00:48:58.464Z,13.30
2023-09-30T00:51:26.782Z,13.30
2023-09-30T00:53:56.582Z,13.30
2023-09-30T00:56:27.237Z,13.30
2023-09-30T00:58:54.464Z,13.20
2023-09-30T01:01:22.281Z,13.30
2023-09-30T01:03:49.780Z,13.20
2023-09-30T01:06:16.894Z,13.20
2023-09-30T01:08:44.178Z,13.20
2023-09-30T01:11:11.476Z,13.20
2023-09-30T01:13:39.131Z,13.20
2023-09-30T01:16:13.246Z,13.20
2023-09-30T01:18:41.475Z,13.20
2023-09-30T01:21:09.585Z,13.20
2023-09-30T01:23:37.225Z,13.30
2023-09-30T01:26:06.135Z,13.20
2023-09-30T01:28:33.647Z,13.20
2023-09-30T01:31:00.673Z,13.20
2023-09-30T01:33:27.937Z,13.10
2023-09-30T01:35:55.232Z,13.00
2023-09-30T01:38:22.330Z,13.10
2023-09-30T01:40:49.451Z,13.10
2023-09-30T01:43:16.660Z,13.10
2023-09-30T01:45:44.462Z,13.00
2023-09-30T01:48:12.383Z,13.00
2023-09-30T01:50:40.092Z,13.00
2023-09-30T01:53:07.870Z,13.00
2023-09-30T01:55:35.603Z,13.00
2023-09-30T01:58:02.895Z,13.00
2023-09-30T02:00:30.020Z,13.00
2023-09-30T02:02:57.840Z,13.00
2023-09-30T02:05:25.104Z,13.00
2023-09-30T02:07:52.464Z,13.00
2023-09-30T02:10:19.891Z,12.90
2023-09-30T02:12:47.974Z,12.80
2023-09-30T02:15:15.802Z,12.80
2023-09-30T02:17:46.984Z,12.80
2023-09-30T02:20:17.461Z,12.90
2023-09-30T02:22:48.897Z,12.90
2023-09-30T02:25:16.406Z,12.90
2023-09-30T02:27:43.984Z,12.90
2023-09-30T02:30:12.913Z,12.90
2023-09-30T02:32:41.572Z,13.00
2023-09-30T02:35:09.637Z,13.00
2023-09-30T02:37:39.516Z,13.00
2023-09-30T02:40:11.591Z,12.90
2023-09-30T02:42:39.267Z,12.90
2023-09-30T02:45:07.408Z,12.90
2023-09-30T02:47:35.244Z,12.90
2023-09-30T02:50:02.851Z,12.90
2023-09-30T02:52:32.483Z,12.90
2023-09-30T02:55:03.921Z,13.00
2023-09-30T02:57:32.725Z,13.00
2023-09-30T03:00:02.134Z,13.00
2023-09-30T03:02:30.617Z,13.00
2023-09-30T03:04:59.605Z,12.90
2023-09-30T03:07:26.584Z,12.90
2023-09-30T03:09:55.437Z,12.90
2023-09-30T03:12:22.491Z,12.90
2023-09-30T03:14:49.397Z,12.90
2023-09-30T03:17:16.361Z,12.90
2023-09-30T03:19:43.366Z,12.90
2023-09-30T03:22:12.756Z,12.90
2023-09-30T03:24:41.349Z,12.80
2023-09-30T03:27:09.135Z,12.80
2023-09-30T03:29:42.187Z,12.80
2023-09-30T03:32:09.074Z,12.80
2023-09-30T03:34:38.809Z,12.70
2023-09-30T03:37:08.505Z,12.70
2023-09-30T03:39:35.567Z,12.70
2023-09-30T03:42:04.213Z,12.70
2023-09-30T03:44:31.160Z,12.70
2023-09-30T03:47:00.713Z,12.60
2023-09-30T03:49:29.867Z,12.60
2023-09-30T03:51:56.775Z,12.60
2023-09-30T03:54:24.116Z,12.60
2023-09-30T03:56:51.105Z,12.50
2023-09-30T03:59:18.512Z,12.50
2023-09-30T04:01:45.509Z,12.50
2023-09-30T04:04:12.579Z,12.60
2023-09-30T04:06:40.055Z,12.60
2023-09-30T04:09:13.006Z,12.60
2023-09-30T04:11:40.381Z,12.60
2023-09-30T04:14:09.075Z,12.50
2023-09-30T04:16:38.855Z,12.60
2023-09-30T04:19:06.216Z,12.60
2023-09-30T04:21:35.700Z,12.60
2023-09-30T04:24:02.917Z,12.60
2023-09-30T04:26:29.829Z,12.50
2023-09-30T04:28:56.833Z,12.50
2023-09-30T04:31:25.033Z,12.50
2023-09-30T04:33:52.819Z,12.50
2023-09-30T04:36:20.805Z,12.50
2023-09-30T04:38:48.421Z,12.50
2023-09-30T04:41:17.006Z,12.50
2023-09-30T04:43:44.811Z,12.50
2023-09-30T04:46:14.256Z,12.50
2023-09-30T04:48:42.428Z,12.60
2023-09-30T04:51:10.856Z,12.60
2023-09-30T04:53:38.570Z,12.60
2023-09-30T04:56:06.065Z,12.70
2023-09-30T04:58:33.070Z,12.70
2023-09-30T05:01:00.123Z,12.70
2023-09-30T05:03:27.545Z,12.70
2023-09-30T05:05:57.018Z,12.70
2023-09-30T05:08:27.260Z,12.70
2023-09-30T05:10:57.257Z,12.70
2023-09-30T05:13:27.486Z,12.80
2023-09-30T05:15:54.985Z,12.80
2023-09-30T05:18:22.284Z,13.00
2023-09-30T05:20:50.904Z,13.00
2023-09-30T05:23:19.973Z,13.10
2023-09-30T05:25:47.165Z,13.20
2023-09-30T05:28:14.925Z,13.40
2023-09-30T05:30:44.581Z,13.60
2023-09-30T05:33:15.587Z,13.80
2023-09-30T05:35:43.412Z,14.00
2023-09-30T05:38:11.365Z,14.10
2023-09-30T05:40:38.770Z,14.30
2023-09-30T05:43:06.771Z,14.50
2023-09-30T05:45:37.424Z,14.60
2023-09-30T05:48:07.960Z,14.80
2023-09-30T05:50:37.959Z,15.00
2023-09-30T05:53:06.118Z,15.20
2023-09-30T05:55:33.588Z,15.40
2023-09-30T05:58:02.268Z,15.70
2023-09-30T06:00:31.813Z,16.00
2023-09-30T06:03:00.254Z,16.30
2023-09-30T06:05:28.030Z,16.70
2023-09-30T06:07:58.006Z,17.00
2023-09-30T06:10:27.008Z,17.40
2023-09-30T06:12:58.355Z,17.90
2023-09-30T06:15:28.563Z,18.30
2023-09-30T06:17:57.134Z,18.70
2023-09-30T06:20:28.074Z,19.20
2023-09-30T06:22:55.537Z,19.30
2023-09-30T06:25:24.878Z,19.60
2023-09-30T06:27:51.934Z,19.90
2023-09-30T06:30:23.327Z,20.20
2023-09-30T06:32:50.965Z,20.50
2023-09-30T06:35:19.783Z,21.00
2023-09-30T06:37:48.973Z,21.40
2023-09-30T06:40:16.055Z,21.70
2023-09-30T06:42:43.831Z,21.80
2023-09-30T06:45:11.641Z,21.90
2023-09-30T06:47:40.848Z,22.00
2023-09-30T06:50:17.813Z,22.20
2023-09-30T06:52:50.956Z,22.40
2023-09-30T06:55:18.307Z,22.30
2023-09-30T06:57:45.477Z,22.40
2023-09-30T07:00:15.240Z,22.70
2023-09-30T07:02:43.292Z,23.00
2023-09-30T07:05:12.697Z,22.90
2023-09-30T07:07:40.817Z,22.80
2023-09-30T07:10:09.022Z,22.60
2023-09-30T07:12:37.434Z,22.40
2023-09-30T07:15:06.437Z,22.10
2023-09-30T07:17:35.122Z,22.00
2023-09-30T07:20:04.029Z,21.80
2023-09-30T07:25:01.106Z,21.60
2023-09-30T07:27:28.898Z,21.40
2023-09-30T07:29:56.072Z,21.20
2023-09-30T07:32:25.977Z,21.10
2023-09-30T07:34:53.415Z,21.00
2023-09-30T07:37:21.851Z,20.90
2023-09-30T07:39:49.037Z,20.80
2023-09-30T07:42:16.079Z,20.80
2023-09-30T07:44:43.101Z,20.70
2023-09-30T07:47:10.647Z,20.80
2023-09-30T07:49:38.885Z,20.80
2023-09-30T07:52:05.926Z,20.70
2023-09-30T07:54:33.076Z,20.80
2023-09-30T07:57:00.845Z,20.80
2023-09-30T07:59:28.477Z,20.90
2023-09-30T08:01:56.028Z,20.90
2023-09-30T08:04:23.095Z,21.00
2023-09-30T08:06:52.356Z,21.30
2023-09-30T08:09:19.910Z,21.60
2023-09-30T08:11:46.996Z,21.90
2023-09-30T08:14:13.920Z,22.20
2023-09-30T08:16:41.567Z,22.40
2023-09-30T08:19:08.644Z,22.70
2023-09-30T08:21:35.661Z,23.00
2023-09-30T08:24:03.824Z,23.20
2023-09-30T08:26:31.088Z,23.30
2023-09-30T08:28:58.260Z,23.60
2023-09-30T08:31:25.602Z,23.70
2023-09-30T08:33:52.753Z,24.20
2023-09-30T08:36:20.200Z,24.70
2023-09-30T08:38:47.684Z,25.20
2023-09-30T08:41:31.699Z,25.80
2023-09-30T08:44:01.817Z,26.30
2023-09-30T08:46:33.329Z,26.10
2023-09-30T08:49:03.220Z,26.10
2023-09-30T08:51:31.135Z,26.10
2023-09-30T08:53:59.280Z,26.20
2023-09-30T08:56:29.251Z,26.40
2023-09-30T08:59:00.552Z,26.50
2023-09-30T09:01:31.770Z,26.70
2023-09-30T09:03:59.267Z,26.60
2023-09-30T09:06:27.488Z,26.60
2023-09-30T09:08:54.801Z,26.40
2023-09-30T09:11:22.600Z,26.20
2023-09-30T09:13:51.903Z,26.10
2023-09-30T09:16:22.413Z,26.20
2023-09-30T09:18:49.841Z,26.40
2023-09-30T09:21:19.539Z,26.70
2023-09-30T09:23:48.645Z,27.30
2023-09-30T09:26:28.443Z,27.50
2023-09-30T09:29:00.015Z,27.20
2023-09-30T09:31:32.758Z,26.60
2023-09-30T09:34:00.445Z,26.40
2023-09-30T09:36:41.586Z,26.10
2023-09-30T09:39:09.183Z,25.90
2023-09-30T09:41:55.734Z,25.80
2023-09-30T09:44:23.617Z,25.80
2023-09-30T09:46:54.083Z,25.80
2023-09-30T09:49:22.372Z,25.80
2023-09-30T09:51:51.414Z,25.90
2023-09-30T09:54:18.874Z,25.80
2023-09-30T09:56:47.110Z,25.70
2023-09-30T09:59:15.307Z,25.50
2023-09-30T10:01:43.719Z,25.30
2023-09-30T10:04:16.938Z,25.20
2023-09-30T10:06:49.570Z,25.00
2023-09-30T10:09:19.173Z,24.80
2023-09-30T10:11:46.793Z,24.70
2023-09-30T10:14:35.032Z,24.60
2023-09-30T10:17:02.739Z,24.50
2023-09-30T10:19:31.596Z,24.40
2023-09-30T10:22:28.020Z,24.30
2023-09-30T10:24:59.243Z,24.20
2023-09-30T10:27:26.246Z,24.10
2023-09-30T10:29:59.225Z,24.00
2023-09-30T10:32:52.277Z,24.00
2023-09-30T10:35:20.204Z,24.00
2023-09-30T10:37:48.098Z,23.90
2023-09-30T10:40:32.329Z,23.80
2023-09-30T10:42:59.321Z,23.70
2023-09-30T10:45:46.190Z,23.70
2023-09-30T10:48:37.878Z,23.60
2023-09-30T10:51:22.369Z,23.60
2023-09-30T10:53:52.757Z,23.60
2023-09-30T10:56:21.218Z,23.50
2023-09-30T10:58:53.945Z,23.40
2023-09-30T11:01:25.143Z,23.40
2023-09-30T11:04:00.330Z,23.30
2023-09-30T11:06:27.714Z,23.30
2023-09-30T11:09:02.491Z,23.40
2023-09-30T11:11:43.552Z,23.40
2023-09-30T11:14:32.322Z,23.40
2023-09-30T11:17:02.606Z,23.30
2023-09-30T11:19:38.225Z,23.30
2023-09-30T11:22:06.506Z,23.40
2023-09-30T11:24:37.778Z,23.20
2023-09-30T11:27:05.673Z,23.20
2023-09-30T11:29:33.666Z,23.20
2023-09-30T11:32:02.765Z,23.10
2023-09-30T11:34:34.615Z,23.00
2023-09-30T11:37:02.492Z,22.90
2023-09-30T11:39:30.871Z,22.80
2023-09-30T11:41:59.483Z,22.70
2023-09-30T11:44:32.135Z,22.70
2023-09-30T11:47:07.168Z,22.60
2023-09-30T11:49:41.803Z,22.50
2023-09-30T11:52:14.274Z,22.30
2023-09-30T11:54:46.513Z,22.30
2023-09-30T11:57:16.699Z,22.20
2023-09-30T11:59:46.334Z,22.00
2023-09-30T12:02:20.947Z,22.00
2023-09-30T12:04:51.056Z,21.90
2023-09-30T12:07:18.263Z,21.90
2023-09-30T12:09:45.330Z,21.90
2023-09-30T12:12:13.746Z,21.80
2023-09-30T12:14:41.446Z,21.70
2023-09-30T12:17:13.244Z,21.70
2023-09-30T12:19:42.400Z,21.60
2023-09-30T12:22:11.604Z,21.60
2023-09-30T12:24:39.132Z,21.50
2023-09-30T12:27:06.323Z,21.50
2023-09-30T12:29:33.597Z,21.50
2023-09-30T12:32:02.633Z,21.40
2023-09-30T12:34:29.845Z,21.30
2023-09-30T12:37:00.647Z,21.20
2023-09-30T12:39:31.791Z,21.10
2023-09-30T12:41:58.874Z,21.00
2023-09-30T12:44:25.832Z,21.00
2023-09-30T12:46:52.880Z,20.90
2023-09-30T12:49:21.428Z,20.80
2023-09-30T12:51:49.024Z,20.80
2023-09-30T12:54:19.329Z,20.80
2023-09-30T12:56:48.235Z,20.80
2023-09-30T12:59:15.317Z,20.80
2023-09-30T13:01:42.307Z,20.80
2023-09-30T13:04:09.705Z,20.80
2023-09-30T13:06:37.617Z,20.80
2023-09-30T13:09:10.198Z,20.80
2023-09-30T13:11:37.858Z,20.90
2023-09-30T13:14:05.713Z,20.90
2023-09-30T13:16:33.049Z,20.90
2023-09-30T13:19:00.935Z,21.00
2023-09-30T13:21:28.603Z,21.00
2023-09-30T13:23:55.775Z,20.90
2023-09-30T13:26:22.789Z,20.90
2023-09-30T13:28:49.819Z,21.00
2023-09-30T13:31:16.886Z,21.00
2023-09-30T13:33:43.972Z,21.00
2023-09-30T13:36:11.613Z,21.00
2023-09-30T13:38:38.604Z,21.10
2023-09-30T13:41:06.497Z,21.20
2023-09-30T13:43:33.468Z,21.20
2023-09-30T13:46:05.297Z,21.30
2023-09-30T13:48:32.327Z,21.40
2023-09-30T13:51:09.392Z,21.40
2023-09-30T13:53:36.976Z,21.50
2023-09-30T13:56:06.934Z,21.50
2023-09-30T13:58:33.975Z,21.50
2023-09-30T14:01:00.965Z,21.60
2023-09-30T14:03:28.424Z,21.70
2023-09-30T14:05:56.844Z,21.80
2023-09-30T14:08:24.034Z,21.80
2023-09-30T14:10:52.437Z,22.00
2023-09-30T14:13:20.315Z,22.10
2023-09-30T14:15:48.220Z,22.20
2023-09-30T14:18:16.220Z,22.30
2023-09-30T14:20:43.541Z,22.30
2023-09-30T14:23:10.996Z,22.40
2023-09-30T14:25:37.968Z,22.50
2023-09-30T14:28:05.490Z,22.50
2023-09-30T14:30:34.640Z,22.50
2023-09-30T14:33:01.894Z,22.50
2023-09-30T14:35:29.367Z,22.40
2023-09-30T14:37:58.131Z,22.30
2023-09-30T14:40:25.353Z,22.30
2023-09-30T14:42:52.473Z,22.20
2023-09-30T14:45:19.490Z,22.10
2023-09-30T14:47:46.469Z,22.10
2023-09-30T14:50:13.485Z,22.10
2023-09-30T14:52:41.262Z,22.10
2023-09-30T14:55:08.717Z,22.20
2023-09-30T14:57:35.817Z,22.10
2023-09-30T15:00:03.635Z,22.10
2023-09-30T15:02:30.567Z,22.10
2023-09-30T15:04:57.506Z,22.10
2023-09-30T15:07:24.420Z,22.10
2023-09-30T15:09:53.574Z,22.10
2023-09-30T15:12:20.547Z,22.10
2023-09-30T15:14:47.498Z,22.00
2023-09-30T15:17:14.413Z,22.00
2023-09-30T15:19:41.426Z,22.00
2023-09-30T15:22:08.598Z,21.90
2023-09-30T15:24:35.600Z,21.90
2023-09-30T15:27:02.667Z,21.90
2023-09-30T15:29:29.610Z,21.90
2023-09-30T15:31:56.598Z,21.80
2023-09-30T15:34:23.654Z,21.70
2023-09-30T15:36:50.618Z,21.60
2023-09-30T15:39:17.553Z,21.60
2023-09-30T15:41:44.504Z,21.50
2023-09-30T15:44:11.460Z,21.40
2023-09-30T15:46:38.475Z,21.40
2023-09-30T15:49:06.300Z,21.30
2023-09-30T15:51:33.368Z,21.20
2023-09-30T15:54:00.839Z,21.10
2023-09-30T15:56:31.745Z,21.00
2023-09-30T15:59:02.957Z,20.90
2023-09-30T16:01:29.960Z,20.80
2023-09-30T16:03:57.364Z,20.70
2023-09-30T16:06:24.765Z,20.60
2023-09-30T16:08:51.895Z,20.60
2023-09-30T16:11:24.795Z,20.50
2023-09-30T16:13:53.164Z,20.40
2023-09-30T16:16:20.666Z,20.30
2023-09-30T16:18:48.850Z,20.20
2023-09-30T16:21:16.025Z,20.20
2023-09-30T16:23:43.032Z,20.20
2023-09-30T16:26:10.041Z,20.20
2023-09-30T16:28:37.031Z,20.30
2023-09-30T16:31:04.768Z,20.30
2023-09-30T16:33:31.942Z,20.20
2023-09-30T16:35:59.228Z,20.10
2023-09-30T16:38:26.383Z,20.20
2023-09-30T16:40:53.700Z,20.20
2023-09-30T16:43:21.322Z,20.20
2023-09-30T16:45:50.316Z,20.20
2023-09-30T16:48:18.389Z,20.00
2023-09-30T16:50:46.748Z,20.10
2023-09-30T16:53:14.072Z,20.00
2023-09-30T16:55:41.630Z,20.10
2023-09-30T16:58:09.752Z,20.00
2023-09-30T17:00:37.483Z,20.00
2023-09-30T17:03:07.749Z,20.00
2023-09-30T17:05:39.416Z,20.00
2023-09-30T17:08:07.266Z,20.00
2023-09-30T17:10:34.486Z,19.90
2023-09-30T17:13:02.831Z,19.90
2023-09-30T17:15:30.001Z,19.90
2023-09-30T17:17:58.388Z,19.90
2023-09-30T17:20:25.564Z,19.90
2023-09-30T17:22:52.557Z,19.90
2023-09-30T17:25:20.789Z,19.90
2023-09-30T17:27:47.847Z,19.90
2023-09-30T17:30:26.287Z,19.90
2023-09-30T17:33:01.721Z,19.80
2023-09-30T17:35:29.384Z,19.90
2023-09-30T17:37:57.336Z,19.80
2023-09-30T17:40:24.886Z,19.80
2023-09-30T17:42:54.489Z,19.80
2023-09-30T17:45:21.812Z,19.80
2023-09-30T17:47:49.091Z,19.70
2023-09-30T17:50:16.373Z,19.70
2023-09-30T17:52:43.554Z,19.70
2023-09-30T17:55:11.014Z,19.60
2023-09-30T17:57:38.323Z,19.60
2023-09-30T18:00:06.445Z,19.50
2023-09-30T18:02:33.627Z,19.50
2023-09-30T18:05:01.603Z,19.50
2023-09-30T18:07:30.299Z,19.40
2023-09-30T18:09:59.760Z,19.40
2023-09-30T18:12:27.271Z,19.40
2023-09-30T18:14:55.367Z,19.30
2023-09-30T18:17:23.097Z,19.30
2023-09-30T18:19:50.903Z,19.30
2023-09-30T18:22:18.536Z,19.30
2023-09-30T18:24:45.821Z,19.20
2023-09-30T18:27:16.307Z,19.10
2023-09-30T18:29:44.927Z,19.10
2023-09-30T18:32:12.193Z,19.10
2023-09-30T18:34:39.437Z,19.00
2023-09-30T18:37:07.958Z,19.00
2023-09-30T18:39:35.691Z,19.00
2023-09-30T18:42:02.847Z,18.90
2023-09-30T18:44:30.355Z,18.80
2023-09-30T18:46:57.908Z,18.80
2023-09-30T18:49:26.641Z,18.70
2023-09-30T18:51:55.972Z,18.60
2023-09-30T18:54:29.210Z,18.60
2023-09-30T18:56:57.286Z,18.60
2023-09-30T18:59:25.071Z,18.50
2023-09-30T19:01:54.856Z,18.40
2023-09-30T19:04:22.380Z,18.40
2023-09-30T19:06:49.992Z,18.30
2023-09-30T19:09:18.216Z,18.20
2023-09-30T19:11:46.640Z,18.10
2023-09-30T19:14:15.268Z,18.10
2023-09-30T19:16:47.641Z,18.00
2023-09-30T19:19:15.496Z,18.00
2023-09-30T19:21:43.108Z,17.90
2023-09-30T19:24:10.730Z,17.90
2023-09-30T19:30:11.865Z,17.80
2023-09-30T19:32:39.577Z,17.80
2023-09-30T19:35:08.284Z,17.70
2023-09-30T19:37:36.124Z,17.60
2023-09-30T19:40:05.121Z,17.60
2023-09-30T19:42:32.877Z,17.50
2023-09-30T19:45:00.754Z,17.50
2023-09-30T19:47:28.721Z,17.50
2023-09-30T19:49:56.283Z,17.50
2023-09-30T19:52:29.880Z,17.50
2023-09-30T19:54:57.846Z,17.50
2023-09-30T19:57:25.746Z,17.50
2023-09-30T19:59:52.969Z,17.50
2023-09-30T20:02:22.082Z,17.40
2023-09-30T20:04:50.037Z,17.40
2023-09-30T20:07:17.578Z,17.40
2023-09-30T20:09:45.552Z,17.40
2023-09-30T20:12:14.158Z,17.40
2023-09-30T20:14:45.495Z,17.40
2023-09-30T20:17:13.733Z,17.40
2023-09-30T20:19:40.820Z,17.40
2023-09-30T20:22:07.932Z,17.40
2023-09-30T20:24:36.027Z,17.40
2023-09-30T20:27:04.674Z,17.30
2023-09-30T20:29:31.682Z,17.40
2023-09-30T20:31:58.816Z,17.30
2023-09-30T20:34:25.972Z,17.30
2023-09-30T20:36:53.334Z,17.30
2023-09-30T20:39:22.041Z,17.30
2023-09-30T20:41:51.697Z,17.30
2023-09-30T20:44:19.367Z,17.20
2023-09-30T20:46:48.858Z,17.20
2023-09-30T20:49:19.199Z,17.20
2023-09-30T20:51:47.070Z,17.20
2023-09-30T20:54:14.550Z,17.20
2023-09-30T20:56:41.762Z,17.10
2023-09-30T20:59:09.462Z,17.10
2023-09-30T21:01:36.778Z,17.10
2023-09-30T21:04:04.094Z,17.10
2023-09-30T21:06:31.460Z,17.10
2023-09-30T21:08:58.697Z,17.00
2023-09-30T21:11:25.853Z,17.00
2023-09-30T21:13:52.925Z,16.80
2023-09-30T21:16:20.144Z,17.00
2023-09-30T21:18:47.386Z,17.00
2023-09-30T21:21:14.483Z,17.00
2023-09-30T21:23:41.964Z,16.90
2023-09-30T21:26:13.845Z,16.90
2023-09-30T21:28:44.133Z,16.90
2023-09-30T21:31:18.721Z,16.90
2023-09-30T21:33:47.632Z,16.90
2023-09-30T21:36:15.852Z,16.80
2023-09-30T21:38:43.403Z,16.80
2023-09-30T21:41:14.615Z,16.80
2023-09-30T21:43:42.739Z,16.80
2023-09-30T21:46:10.692Z,16.80
2023-09-30T21:48:38.226Z,16.80
2023-09-30T21:51:05.606Z,16.80
2023-09-30T21:53:33.116Z,16.80
2023-09-30T21:56:00.936Z,16.70
2023-09-30T21:58:28.172Z,16.70
2023-09-30T22:00:58.715Z,16.70
2023-09-30T22:03:26.552Z,16.70
2023-09-30T22:05:56.537Z,16.70
2023-09-30T22:08:25.038Z,16.70
2023-09-30T22:10:56.121Z,16.70
2023-09-30T22:13:26.013Z,16.70
2023-09-30T22:15:54.140Z,16.70
2023-09-30T22:18:22.586Z,16.70
2023-09-30T22:20:50.110Z,16.70
2023-09-30T22:23:17.210Z,16.70
2023-09-30T22:25:44.247Z,16.70
2023-09-30T22:28:11.738Z,16.60
2023-09-30T22:30:39.053Z,16.70
2023-09-30T22:33:07.667Z,16.60
2023-09-30T22:35:34.876Z,16.60
2023-09-30T22:38:02.474Z,16.50
2023-09-30T22:40:29.495Z,16.50
2023-09-30T22:42:57.477Z,16.50
2023-09-30T22:45:24.624Z,16.50
2023-09-30T22:47:54.147Z,16.40
2023-09-30T22:50:23.429Z,16.40
2023-09-30T22:52:51.560Z,16.40
2023-09-30T22:55:23.057Z,16.40
2023-09-30T22:57:51.753Z,16.40
2023-09-30T23:00:21.048Z,16.30
2023-09-30T23:02:49.174Z,16.30
2023-09-30T23:05:19.008Z,16.30
2023-09-30T23:07:47.092Z,16.30
2023-09-30T23:10:15.584Z,16.20
2023-09-30T23:12:42.684Z,16.20
2023-09-30T23:15:11.913Z,16.20
2023-09-30T23:17:44.135Z,16.10
2023-09-30T23:20:17.651Z,16.10
2023-09-30T23:22:49.810Z,16.10
2023-09-30T23:25:20.177Z,16.10
2023-09-30T23:27:48.094Z,16.10
2023-09-30T23:30:18.896Z,16.00
2023-09-30T23:32:51.326Z,16.00
2023-09-30T23:35:21.746Z,16.00
2023-09-30T23:37:58.991Z,15.90
2023-09-30T23:40:26.168Z,15.90
2023-09-30T23:42:55.455Z,15.80
2023-09-30T23:45:23.378Z,15.80
2023-09-30T23:47:54.255Z,15.80
2023-09-30T23:50:21.548Z,15.70
2023-09-30T23:52:50.582Z,15.70
2023-09-30T23:55:18.314Z,15.70
2023-09-30T23:57:45.656Z,15.60
